Time;durP1;ratioP1;P1;durP2;ratioP2;P2;SDS_P1;SDS_P2;PMS_P1;PMS_P2;Temp;Humidity;BMP_temperature;BMP_pressure;BME280_temperature;BME280_humidity;BME280_pressure;Samples;Min_cycle;Max_cycle;Signal;HPM_P1;HPM_P2
2023/09/09 00:02:19;;;;;;;14.48;10.90;;;14.30;99.90;;;;;;5049137;28;20040;-57
2023/09/09 00:04:45;;;;;;;14.90;10.10;;;14.30;99.90;;;;;;5030280;28;20033;-58
2023/09/09 00:07:11;;;;;;;13.88;10.50;;;14.30;99.90;;;;;;5049065;28;20167;-59
2023/09/09 00:09:41;;;;;;;11.25;9.48;;;14.30;99.90;;;;;;5040727;28;20174;-59
2023/09/09 00:12:06;;;;;;;12.30;9.68;;;14.20;99.90;;;;;;5029560;28;20033;-59
2023/09/09 00:14:32;;;;;;;14.77;9.80;;;14.20;99.90;;;;;;5045044;28;20500;-59
2023/09/09 00:16:58;;;;;;;14.68;9.77;;;14.20;99.90;;;;;;5029997;28;20052;-59
2023/09/09 00:19:24;;;;;;;13.00;10.30;;;14.20;99.90;;;;;;5045999;28;20040;-57
2023/09/09 00:21:50;;;;;;;14.38;9.75;;;14.20;99.90;;;;;;5029932;28;20029;-59
2023/09/09 00:24:16;;;;;;;14.23;9.50;;;14.20;99.90;;;;;;5047641;28;20414;-58
2023/09/09 00:26:41;;;;;;;12.40;9.40;;;14.10;99.90;;;;;;5030027;28;20132;-59
2023/09/09 00:29:07;;;;;;;12.73;10.10;;;14.10;99.90;;;;;;5047540;28;20456;-58
2023/09/09 00:31:32;;;;;;;14.15;10.27;;;14.10;99.90;;;;;;5043502;28;20049;-59
2023/09/09 00:33:58;;;;;;;10.70;8.70;;;14.10;99.90;;;;;;5034755;28;20532;-57
2023/09/09 00:36:23;;;;;;;15.48;10.95;;;14.00;99.90;;;;;;5049064;28;20032;-57
2023/09/09 00:38:49;;;;;;;14.93;11.00;;;14.00;99.90;;;;;;5033818;28;20050;-58
2023/09/09 00:41:17;;;;;;;13.20;11.30;;;14.00;99.90;;;;;;5049223;28;20025;-58
2023/09/09 00:43:46;;;;;;;14.60;9.88;;;14.00;99.90;;;;;;5030771;28;20025;-63
2023/09/09 00:46:13;;;;;;;13.75;10.60;;;14.00;99.90;;;;;;5049183;28;20032;-75
2023/09/09 00:48:39;;;;;;;11.77;8.95;;;13.90;99.90;;;;;;5031378;28;20030;-64
2023/09/09 00:51:05;;;;;;;11.80;9.45;;;13.90;99.90;;;;;;5048112;28;20091;-63
2023/09/09 00:53:32;;;;;;;12.30;9.88;;;13.90;99.90;;;;;;5031005;28;20034;-64
2023/09/09 00:56:00;;;;;;;12.40;9.30;;;13.90;99.90;;;;;;5048928;28;20056;-64
2023/09/09 00:58:30;;;;;;;11.63;8.88;;;13.90;99.90;;;;;;5029841;28;20029;-63
2023/09/09 01:00:55;;;;;;;12.02;9.32;;;13.80;99.90;;;;;;5047658;28;20284;-63
2023/09/09 01:03:21;;;;;;;13.35;9.23;;;13.80;99.90;;;;;;5029417;28;20559;-63
2023/09/09 01:05:47;;;;;;;12.52;8.80;;;13.80;99.90;;;;;;5048825;28;20485;-64
2023/09/09 01:08:27;;;;;;;11.65;8.90;;;13.80;99.90;;;;;;5028978;28;20052;-63
2023/09/09 01:10:53;;;;;;;11.18;8.55;;;13.80;99.90;;;;;;5007820;28;20498;-63
2023/09/09 01:13:19;;;;;;;10.25;7.95;;;13.80;99.90;;;;;;5039275;28;21210;-63
2023/09/09 01:15:45;;;;;;;10.57;8.25;;;13.80;99.90;;;;;;5027306;28;20250;-64
2023/09/09 01:18:10;;;;;;;11.88;8.95;;;13.80;99.90;;;;;;5042227;28;20021;-65
2023/09/09 01:20:40;;;;;;;11.18;8.68;;;13.80;99.90;;;;;;5027109;28;20492;-63
2023/09/09 01:23:05;;;;;;;13.65;9.30;;;13.70;99.90;;;;;;5048393;28;20039;-66
2023/09/09 01:25:31;;;;;;;13.55;8.68;;;13.70;99.90;;;;;;5027590;28;20030;-66
2023/09/09 01:27:56;;;;;;;11.38;9.73;;;13.70;99.90;;;;;;5047777;28;20120;-66
2023/09/09 01:30:22;;;;;;;10.30;8.93;;;13.70;99.90;;;;;;5028843;28;20116;-66
2023/09/09 01:32:47;;;;;;;13.25;9.77;;;13.70;99.90;;;;;;5047500;28;20622;-66
2023/09/09 01:35:13;;;;;;;13.95;9.35;;;13.70;99.90;;;;;;5027470;28;20022;-67
2023/09/09 01:37:39;;;;;;;11.30;9.18;;;13.60;99.90;;;;;;5047687;28;20055;-66
2023/09/09 01:40:12;;;;;;;10.75;8.50;;;13.60;99.90;;;;;;5027481;28;20037;-66
2023/09/09 01:42:38;;;;;;;11.32;8.88;;;13.60;99.90;;;;;;5023863;28;20126;-67
2023/09/09 01:45:04;;;;;;;12.20;9.38;;;13.50;99.90;;;;;;5031603;28;20109;-66
2023/09/09 01:47:29;;;;;;;11.55;9.32;;;13.50;99.90;;;;;;5047576;28;20029;-65
2023/09/09 01:49:55;;;;;;;10.25;8.52;;;13.50;99.90;;;;;;5025702;28;20489;-66
2023/09/09 01:52:20;;;;;;;10.75;8.50;;;13.50;99.90;;;;;;5047393;28;20033;-65
2023/09/09 01:54:46;;;;;;;14.02;9.95;;;13.50;99.90;;;;;;5030211;28;20766;-66
2023/09/09 01:57:13;;;;;;;13.82;9.80;;;13.40;99.90;;;;;;5051291;28;20121;-66
2023/09/09 01:59:39;;;;;;;10.90;9.27;;;13.40;99.90;;;;;;5043489;28;20361;-66
2023/09/09 02:02:06;;;;;;;12.45;8.82;;;13.40;99.90;;;;;;5031378;28;20044;-65
2023/09/09 02:04:31;;;;;;;13.35;9.90;;;13.40;99.90;;;;;;5049303;28;20048;-65
2023/09/09 02:06:57;;;;;;;11.05;9.52;;;13.40;99.90;;;;;;5031267;28;20026;-65
2023/09/09 02:09:22;;;;;;;13.75;9.95;;;13.30;99.90;;;;;;5050090;28;20036;-65
2023/09/09 02:11:48;;;;;;;14.93;10.15;;;13.30;99.90;;;;;;5032401;28;20072;-66
2023/09/09 02:14:13;;;;;;;13.20;9.80;;;13.30;99.90;;;;;;5034997;28;20029;-66
2023/09/09 02:16:38;;;;;;;11.68;9.27;;;13.30;99.90;;;;;;5049574;28;20032;-66
2023/09/09 02:19:04;;;;;;;12.55;9.98;;;13.30;99.90;;;;;;5029256;28;20032;-66
2023/09/09 02:21:29;;;;;;;13.02;9.70;;;13.30;99.90;;;;;;5050831;28;20595;-66
2023/09/09 02:23:55;;;;;;;11.90;9.77;;;13.20;99.90;;;;;;5037061;28;20028;-65
2023/09/09 02:26:20;;;;;;;12.90;9.82;;;13.30;99.90;;;;;;5051719;28;20040;-66
2023/09/09 02:28:46;;;;;;;12.43;10.50;;;13.30;99.90;;;;;;5035701;28;20102;-65
2023/09/09 02:31:11;;;;;;;10.43;8.77;;;13.20;99.90;;;;;;5048845;28;20076;-65
2023/09/09 02:33:37;;;;;;;13.95;9.52;;;13.20;99.90;;;;;;5033955;28;20087;-65
2023/09/09 02:36:03;;;;;;;9.40;8.35;;;13.20;99.90;;;;;;5050035;28;20664;-65
2023/09/09 02:38:28;;;;;;;11.77;8.88;;;13.20;99.90;;;;;;5033191;28;20060;-65
2023/09/09 02:40:53;;;;;;;10.57;8.82;;;13.20;99.90;;;;;;5051340;28;20029;-65
2023/09/09 02:43:19;;;;;;;11.23;8.85;;;13.20;99.90;;;;;;5031757;28;20057;-65
2023/09/09 02:45:44;;;;;;;12.32;9.65;;;13.10;99.90;;;;;;5051437;28;20111;-66
2023/09/09 02:48:10;;;;;;;12.32;9.90;;;13.20;99.90;;;;;;5033816;28;20497;-66
2023/09/09 02:50:36;;;;;;;12.77;9.90;;;13.10;99.90;;;;;;5030162;28;20037;-66
2023/09/09 02:53:01;;;;;;;11.75;9.07;;;13.10;99.90;;;;;;5050316;28;20041;-66
2023/09/09 02:55:27;;;;;;;13.57;9.93;;;13.10;99.90;;;;;;5030065;28;20025;-66
2023/09/09 03:01:21;;;;;;;14.98;10.30;;;13.10;99.90;;;;;;5011538;28;20137;-67
2023/09/09 03:03:46;;;;;;;11.73;9.18;;;13.10;99.90;;;;;;5047169;28;20404;-66
2023/09/09 03:06:12;;;;;;;13.60;10.55;;;13.10;99.90;;;;;;5049410;28;20104;-66
2023/09/09 03:08:37;;;;;;;13.65;9.93;;;13.10;99.90;;;;;;5033688;28;20029;-66
2023/09/09 03:11:03;;;;;;;16.10;11.60;;;13.00;99.90;;;;;;5050776;28;20603;-66
2023/09/09 03:13:28;;;;;;;12.82;10.07;;;13.00;99.90;;;;;;5028796;28;20116;-66
2023/09/09 03:15:54;;;;;;;14.32;10.27;;;13.00;99.90;;;;;;5030752;28;20029;-66
2023/09/09 03:18:19;;;;;;;13.65;9.80;;;13.00;99.90;;;;;;5041486;28;20033;-65
2023/09/09 03:20:45;;;;;;;13.23;9.88;;;13.00;99.90;;;;;;5029307;28;20250;-66
2023/09/09 03:23:10;;;;;;;13.65;9.30;;;13.00;99.90;;;;;;5049720;28;20389;-66
2023/09/09 03:25:35;;;;;;;11.85;9.75;;;12.90;99.90;;;;;;5049569;28;20409;-66
2023/09/09 03:28:02;;;;;;;11.68;9.25;;;12.90;99.90;;;;;;5029700;28;20026;-66
2023/09/09 03:30:28;;;;;;;12.75;10.05;;;13.00;99.90;;;;;;5031057;28;20103;-66
2023/09/09 03:32:53;;;;;;;22.23;10.25;;;12.90;99.90;;;;;;5049401;28;20432;-66
2023/09/09 03:35:19;;;;;;;11.90;9.40;;;12.90;99.90;;;;;;5030654;28;20041;-65
2023/09/09 03:37:44;;;;;;;12.70;10.40;;;12.90;99.90;;;;;;5049519;28;20029;-65
2023/09/09 03:40:10;;;;;;;12.77;10.27;;;12.90;99.90;;;;;;5030801;28;20034;-66
2023/09/09 03:42:38;;;;;;;13.98;11.00;;;12.80;99.90;;;;;;5049266;28;20033;-66
2023/09/09 03:45:04;;;;;;;13.88;11.27;;;12.90;99.90;;;;;;5030138;28;20060;-66
2023/09/09 03:47:29;;;;;;;16.30;11.30;;;12.80;99.90;;;;;;5049498;28;20092;-66
2023/09/09 03:49:55;;;;;;;14.93;10.55;;;12.90;99.90;;;;;;5028656;28;20026;-66
2023/09/09 03:52:21;;;;;;;12.82;10.93;;;12.80;99.90;;;;;;5047873;28;20051;-66
2023/09/09 03:54:47;;;;;;;14.82;11.77;;;12.80;99.90;;;;;;5030458;28;20057;-66
2023/09/09 03:57:12;;;;;;;13.90;10.95;;;12.80;99.90;;;;;;5048924;28;20036;-66
2023/09/09 03:59:37;;;;;;;12.65;10.05;;;12.80;99.90;;;;;;5028909;28;20053;-65
2023/09/09 04:02:03;;;;;;;12.65;9.90;;;12.80;99.90;;;;;;5047730;28;20029;-66
2023/09/09 04:04:29;;;;;;;14.13;10.25;;;12.80;99.90;;;;;;5039808;28;20476;-66
2023/09/09 04:06:54;;;;;;;11.35;9.52;;;12.70;99.90;;;;;;5030515;28;20052;-66
2023/09/09 04:09:22;;;;;;;12.32;9.25;;;12.70;99.90;;;;;;5046467;28;20116;-66
2023/09/09 04:11:47;;;;;;;12.18;10.30;;;12.70;99.90;;;;;;5029615;28;20582;-66
2023/09/09 04:14:13;;;;;;;14.05;11.00;;;12.70;99.90;;;;;;5032690;28;20550;-66
2023/09/09 04:16:38;;;;;;;12.23;9.85;;;12.70;99.90;;;;;;5048214;28;20131;-66
2023/09/09 04:19:04;;;;;;;14.43;10.43;;;12.70;99.90;;;;;;5028072;28;20386;-67
2023/09/09 04:21:29;;;;;;;14.88;11.35;;;12.70;99.90;;;;;;5048616;28;20040;-66
2023/09/09 04:23:55;;;;;;;12.55;10.43;;;12.70;99.90;;;;;;5034678;28;20051;-66
2023/09/09 04:26:20;;;;;;;14.60;10.65;;;12.70;99.90;;;;;;5049243;28;20035;-66
2023/09/09 04:28:46;;;;;;;13.60;10.60;;;12.70;99.90;;;;;;5033104;28;20024;-67
2023/09/09 04:31:11;;;;;;;13.23;9.95;;;12.70;99.90;;;;;;5046444;28;20044;-66
2023/09/09 04:33:36;;;;;;;14.32;10.50;;;12.70;99.90;;;;;;5030102;28;20029;-65
2023/09/09 04:36:02;;;;;;;14.00;10.77;;;12.70;99.90;;;;;;5047717;28;20037;-66
2023/09/09 04:38:27;;;;;;;13.93;11.43;;;12.70;99.90;;;;;;5030648;28;20400;-66
2023/09/09 04:40:53;;;;;;;16.52;11.23;;;12.70;99.90;;;;;;5049086;28;20025;-66
2023/09/09 04:43:20;;;;;;;15.40;11.30;;;12.80;99.90;;;;;;5029370;28;20103;-65
2023/09/09 04:45:46;;;;;;;14.15;10.80;;;12.80;99.90;;;;;;5048836;28;20025;-66
2023/09/09 04:48:11;;;;;;;15.93;12.00;;;12.80;99.90;;;;;;5031588;28;20543;-66
2023/09/09 04:50:37;;;;;;;15.00;11.80;;;12.90;99.90;;;;;;5028713;28;20052;-66
2023/09/09 04:53:04;;;;;;;13.25;11.07;;;13.00;99.90;;;;;;5048005;28;20531;-66
2023/09/09 04:55:29;;;;;;;14.70;10.77;;;13.00;99.90;;;;;;5028782;28;20108;-66
2023/09/09 04:57:55;;;;;;;12.82;10.57;;;13.00;99.90;;;;;;5046558;28;20097;-66
2023/09/09 05:00:20;;;;;;;15.18;10.75;;;13.10;99.90;;;;;;5029215;28;20471;-66
2023/09/09 05:02:46;;;;;;;12.82;10.55;;;13.10;99.90;;;;;;5047715;28;20025;-66
2023/09/09 05:05:11;;;;;;;16.15;11.20;;;13.20;99.90;;;;;;5028869;28;20224;-66
2023/09/09 05:07:37;;;;;;;14.63;11.70;;;13.30;99.90;;;;;;5047736;28;20025;-66
2023/09/09 05:10:04;;;;;;;13.43;11.25;;;13.30;99.90;;;;;;5028978;28;20101;-66
2023/09/09 05:12:33;;;;;;;15.75;12.23;;;13.40;99.90;;;;;;5046464;28;20523;-66
2023/09/09 05:14:59;;;;;;;15.20;11.73;;;13.50;99.90;;;;;;5023692;28;20613;-66
2023/09/09 05:17:25;;;;;;;14.43;11.32;;;13.50;99.90;;;;;;5047656;28;20378;-67
2023/09/09 05:19:50;;;;;;;15.55;11.68;;;13.60;99.90;;;;;;5025764;28;20505;-67
2023/09/09 05:22:16;;;;;;;16.70;12.27;;;13.70;99.90;;;;;;5047606;28;20236;-66
2023/09/09 05:24:42;;;;;;;14.38;11.68;;;13.80;99.90;;;;;;5028704;28;20026;-66
2023/09/09 05:27:07;;;;;;;15.43;11.88;;;14.30;99.90;;;;;;5047750;28;20039;-67
2023/09/09 05:29:33;;;;;;;16.13;12.02;;;15.30;99.90;;;;;;5038865;28;20033;-66
2023/09/09 05:31:58;;;;;;;13.23;11.25;;;16.30;99.90;;;;;;5041850;28;20045;-67
2023/09/09 05:34:24;;;;;;;15.57;11.93;;;17.20;99.90;;;;;;5040380;28;20025;-67
2023/09/09 05:36:49;;;;;;;12.48;9.50;;;18.10;99.90;;;;;;5032757;28;20450;-66
2023/09/09 05:39:16;;;;;;;12.70;10.50;;;19.00;99.90;;;;;;5050549;28;20033;-66
2023/09/09 05:41:41;;;;;;;15.48;9.90;;;19.80;98.50;;;;;;5032615;28;20026;-66
2023/09/09 05:44:07;;;;;;;11.13;9.73;;;20.40;92.40;;;;;;5050440;28;20033;-66
2023/09/09 05:46:32;;;;;;;13.43;8.73;;;20.90;92.00;;;;;;5052176;28;20037;-65
2023/09/09 05:48:57;;;;;;;12.57;9.48;;;21.50;92.60;;;;;;5034981;28;20348;-67
2023/09/09 05:51:23;;;;;;;12.75;9.77;;;21.90;86.10;;;;;;5051211;28;20240;-66
2023/09/09 05:53:50;;;;;;;12.55;9.63;;;22.40;86.90;;;;;;5036586;28;20233;-66
2023/09/09 05:56:16;;;;;;;13.43;9.20;;;22.90;78.00;;;;;;5051876;28;20493;-66
2023/09/09 05:58:41;;;;;;;11.57;9.18;;;23.40;80.60;;;;;;5035474;28;20040;-66
2023/09/09 06:01:07;;;;;;;10.63;9.25;;;23.90;78.70;;;;;;5050765;28;20052;-66
2023/09/09 06:03:32;;;;;;;11.02;8.40;;;24.30;74.40;;;;;;5034232;28;20552;-65
2023/09/09 06:05:58;;;;;;;10.80;8.75;;;24.60;73.40;;;;;;5051902;28;20021;-66
2023/09/09 06:08:24;;;;;;;10.30;8.57;;;24.90;64.30;;;;;;5032790;28;20104;-65
2023/09/09 06:10:49;;;;;;;8.95;8.02;;;25.20;69.00;;;;;;5051668;28;20032;-65
2023/09/09 06:13:15;;;;;;;9.23;7.60;;;25.60;61.60;;;;;;5029660;28;20230;-67
2023/09/09 06:15:40;;;;;;;8.55;7.50;;;26.20;68.00;;;;;;5031652;28;20022;-66
2023/09/09 06:18:06;;;;;;;9.48;7.38;;;26.50;67.20;;;;;;5044452;28;20440;-66
2023/09/09 06:20:31;;;;;;;9.95;6.88;;;27.20;66.30;;;;;;5031545;28;20099;-64
2023/09/09 06:22:57;;;;;;;9.93;7.75;;;27.70;63.90;;;;;;5050766;28;20037;-66
2023/09/09 06:25:22;;;;;;;8.50;7.05;;;27.70;60.90;;;;;;5031859;28;20398;-67
2023/09/09 06:27:48;;;;;;;12.68;7.95;;;28.00;60.10;;;;;;5050556;28;20059;-66
2023/09/09 06:30:13;;;;;;;7.57;6.80;;;28.10;56.10;;;;;;5031877;28;20393;-66
2023/09/09 06:32:39;;;;;;;10.40;7.95;;;28.40;57.90;;;;;;5049226;28;20443;-66
2023/09/09 06:35:05;;;;;;;9.25;7.15;;;28.50;55.50;;;;;;5030321;28;20037;-66
2023/09/09 06:37:30;;;;;;;8.15;7.22;;;28.60;53.40;;;;;;5049262;28;20028;-66
2023/09/09 06:39:56;;;;;;;8.55;6.85;;;29.00;53.50;;;;;;5031024;28;20040;-66
2023/09/09 06:42:22;;;;;;;7.53;6.72;;;29.30;52.50;;;;;;5049110;28;20041;-66
2023/09/09 06:44:47;;;;;;;7.68;6.57;;;29.60;50.90;;;;;;5031513;28;20215;-66
2023/09/09 06:47:13;;;;;;;8.07;7.03;;;29.40;49.80;;;;;;5050424;28;20184;-66
2023/09/09 06:49:38;;;;;;;7.72;6.95;;;29.50;48.60;;;;;;5029997;28;20036;-63
2023/09/09 06:52:04;;;;;;;7.10;6.28;;;29.50;47.90;;;;;;5050212;28;20040;-63
2023/09/09 06:54:30;;;;;;;8.65;6.30;;;29.80;47.70;;;;;;5039697;28;20029;-63
2023/09/09 06:56:55;;;;;;;6.93;5.75;;;30.50;47.50;;;;;;5031384;28;20061;-63
2023/09/09 06:59:20;;;;;;;6.90;5.90;;;31.00;45.50;;;;;;5049156;28;20499;-63
2023/09/09 07:01:46;;;;;;;6.80;6.07;;;31.60;44.30;;;;;;5031331;28;20026;-64
2023/09/09 07:04:11;;;;;;;8.10;7.18;;;32.10;42.20;;;;;;5049029;28;20603;-63
2023/09/09 07:06:37;;;;;;;7.20;6.50;;;32.20;32.10;;;;;;5050779;28;20091;-64
2023/09/09 07:09:02;;;;;;;7.88;5.85;;;31.60;37.50;;;;;;5035865;28;20174;-64
2023/09/09 07:11:28;;;;;;;7.72;6.05;;;32.00;37.40;;;;;;5049250;28;20111;-63
2023/09/09 07:13:54;;;;;;;9.45;5.85;;;32.60;36.40;;;;;;5028234;28;20033;-64
2023/09/09 07:16:19;;;;;;;6.15;5.55;;;32.80;31.50;;;;;;5049785;28;20044;-63
2023/09/09 07:18:45;;;;;;;7.07;6.18;;;32.50;33.60;;;;;;5033375;28;20447;-63
2023/09/09 07:21:10;;;;;;;8.18;6.10;;;32.40;30.70;;;;;;5049795;28;20048;-63
2023/09/09 07:23:36;;;;;;;6.53;5.55;;;31.70;32.10;;;;;;5033141;28;20508;-63
2023/09/09 07:26:02;;;;;;;8.77;6.15;;;31.50;32.80;;;;;;5050390;28;20127;-63
2023/09/09 07:28:28;;;;;;;7.78;5.88;;;31.30;32.50;;;;;;5031812;28;20026;-62
2023/09/09 07:30:53;;;;;;;5.65;5.15;;;31.20;32.30;;;;;;5049965;28;20025;-62
2023/09/09 07:33:19;;;;;;;6.88;6.18;;;31.20;32.60;;;;;;5028888;28;20071;-62
2023/09/09 07:35:44;;;;;;;7.53;5.72;;;31.10;32.20;;;;;;5050190;28;20036;-63
2023/09/09 07:38:10;;;;;;;10.45;6.38;;;31.00;31.40;;;;;;5030792;28;20034;-65
2023/09/09 07:40:36;;;;;;;7.80;6.70;;;30.50;27.50;;;;;;5049420;28;20107;-63
2023/09/09 07:43:01;;;;;;;8.07;5.97;;;30.10;32.20;;;;;;5030651;28;20374;-64
2023/09/09 07:45:27;;;;;;;6.72;6.05;;;30.20;32.50;;;;;;5030951;28;20272;-64
2023/09/09 07:47:53;;;;;;;7.40;5.68;;;30.50;32.70;;;;;;5046002;28;20035;-63
2023/09/09 07:50:18;;;;;;;6.57;5.93;;;30.70;32.40;;;;;;5029910;28;20021;-63
2023/09/09 07:52:44;;;;;;;7.53;5.85;;;30.70;32.20;;;;;;5048185;28;20064;-63
2023/09/09 07:55:10;;;;;;;5.90;5.30;;;30.90;31.90;;;;;;5030229;28;20052;-63
2023/09/09 07:57:35;;;;;;;6.38;5.75;;;31.10;30.90;;;;;;5049048;28;20114;-62
2023/09/09 08:00:01;;;;;;;5.82;5.22;;;30.80;32.20;;;;;;5030274;28;20030;-64
2023/09/09 08:02:27;;;;;;;6.40;5.80;;;31.00;33.00;;;;;;5049036;28;20035;-63
2023/09/09 08:04:52;;;;;;;7.28;5.65;;;31.10;32.50;;;;;;5029954;28;20258;-63
2023/09/09 08:07:18;;;;;;;5.53;5.03;;;31.00;31.50;;;;;;5048870;28;20040;-63
2023/09/09 08:09:44;;;;;;;7.45;5.68;;;31.20;31.90;;;;;;5029931;28;20179;-63
2023/09/09 08:12:09;;;;;;;5.60;5.10;;;31.30;30.80;;;;;;5048857;28;20515;-63
2023/09/09 08:14:35;;;;;;;9.93;5.90;;;31.20;31.00;;;;;;5035415;28;20021;-64
2023/09/09 08:17:00;;;;;;;10.20;5.88;;;31.30;30.20;;;;;;5029971;28;20033;-63
2023/09/09 08:19:26;;;;;;;5.97;5.30;;;31.30;30.30;;;;;;5045913;28;20400;-64
2023/09/09 08:21:52;;;;;;;7.05;5.50;;;31.20;29.90;;;;;;5030009;28;20143;-63
2023/09/09 08:24:17;;;;;;;6.70;5.47;;;31.30;29.40;;;;;;5047723;28;20400;-63
2023/09/09 08:26:43;;;;;;;5.85;5.35;;;31.30;29.00;;;;;;5029775;28;20029;-64
2023/09/09 08:29:08;;;;;;;6.80;5.68;;;31.30;27.80;;;;;;5047499;28;20122;-63
2023/09/09 08:31:35;;;;;;;5.82;5.22;;;31.00;27.70;;;;;;5043322;28;20549;-63
2023/09/09 08:34:00;;;;;;;5.32;4.82;;;31.10;28.30;;;;;;5034787;28;20083;-63
2023/09/09 08:36:26;;;;;;;5.90;5.30;;;31.10;28.00;;;;;;5049118;28;20033;-63
2023/09/09 08:38:56;;;;;;;5.55;5.03;;;31.20;28.00;;;;;;5033893;28;20025;-64
2023/09/09 08:41:24;;;;;;;8.00;5.60;;;31.10;27.20;;;;;;5049067;28;20028;-63
2023/09/09 08:44:00;;;;;;;5.25;4.75;;;31.00;27.10;;;;;;5033781;28;20020;-63
2023/09/09 08:46:26;;;;;;;5.80;4.47;;;30.80;26.00;;;;;;5047764;28;20033;-64
2023/09/09 08:48:52;;;;;;;4.95;4.50;;;30.60;27.40;;;;;;5031770;28;20120;-64
2023/09/09 08:51:24;;;;;;;5.30;4.82;;;30.60;27.60;;;;;;5048261;28;20033;-63
2023/09/09 08:53:51;;;;;;;6.15;5.05;;;30.60;27.90;;;;;;5018199;28;20033;-63
2023/09/09 08:56:17;;;;;;;5.57;4.95;;;30.40;28.10;;;;;;5048801;28;20100;-63
2023/09/09 08:58:43;;;;;;;8.88;5.20;;;30.40;28.30;;;;;;5032441;28;20032;-63
2023/09/09 09:01:11;;;;;;;7.50;5.53;;;30.50;27.20;;;;;;5048777;28;20024;-63
2023/09/09 09:03:37;;;;;;;7.90;5.38;;;30.60;27.30;;;;;;5030972;28;20040;-64
2023/09/09 09:06:04;;;;;;;6.18;5.00;;;30.30;27.90;;;;;;5048665;28;20083;-63
2023/09/09 09:08:31;;;;;;;8.05;4.90;;;30.40;28.40;;;;;;5030249;28;20757;-63
2023/09/09 09:10:58;;;;;;;6.85;4.53;;;30.70;28.00;;;;;;5048497;28;20051;-63
2023/09/09 09:13:24;;;;;;;5.78;5.28;;;30.90;27.80;;;;;;5026239;28;20024;-61
2023/09/09 09:15:49;;;;;;;5.57;4.50;;;31.00;27.20;;;;;;5028575;28;20021;-61
2023/09/09 09:18:15;;;;;;;6.78;4.90;;;31.10;27.00;;;;;;5039944;28;20168;-62
2023/09/09 09:20:40;;;;;;;6.50;4.75;;;31.20;26.20;;;;;;5028509;28;20025;-61
2023/09/09 09:23:10;;;;;;;6.30;4.72;;;31.20;26.00;;;;;;5047909;28;20477;-69
2023/09/09 09:25:39;;;;;;;6.57;5.13;;;31.30;25.80;;;;;;5026739;28;20143;-68
2023/09/09 09:28:05;;;;;;;6.88;5.43;;;31.10;25.70;;;;;;5048042;28;20108;-69
2023/09/09 09:30:33;;;;;;;4.82;4.40;;;30.80;25.60;;;;;;5028969;28;20160;-69
2023/09/09 09:32:58;;;;;;;7.70;4.68;;;30.80;25.50;;;;;;5047859;28;20044;-70
2023/09/09 09:35:25;;;;;;;7.30;4.88;;;30.90;25.00;;;;;;5028727;28;20516;-69
2023/09/09 09:38:01;;;;;;;6.63;4.47;;;31.00;24.90;;;;;;5047696;28;20033;-69
2023/09/09 09:40:28;;;;;;;4.95;4.45;;;31.20;24.30;;;;;;5026737;28;20083;-69
2023/09/09 09:42:54;;;;;;;6.03;4.50;;;31.30;24.10;;;;;;5047644;28;20095;-69
2023/09/09 09:45:26;;;;;;;4.45;4.00;;;31.40;23.70;;;;;;5028716;28;20076;-70
2023/09/09 09:47:52;;;;;;;5.18;4.68;;;31.30;23.20;;;;;;5044873;28;20033;-67
2023/09/09 09:50:30;;;;;;;4.85;4.03;;;31.40;23.20;;;;;;5028273;28;20042;-69
2023/09/09 09:53:00;;;;;;;6.53;4.40;;;31.40;22.30;;;;;;5008495;28;20103;-68
2023/09/09 09:55:27;;;;;;;4.93;4.25;;;31.40;22.30;;;;;;5028868;28;20026;-69
2023/09/09 09:58:01;;;;;;;6.47;4.07;;;31.40;21.90;;;;;;5046024;28;20056;-68
2023/09/09 10:00:28;;;;;;;4.38;3.92;;;31.50;21.70;;;;;;5026866;28;20025;-69
2023/09/09 10:02:58;;;;;;;5.65;4.30;;;31.40;21.50;;;;;;5047387;28;20037;-69
2023/09/09 10:05:25;;;;;;;6.88;4.43;;;31.30;20.40;;;;;;5021691;28;20034;-68
2023/09/09 10:08:09;;;;;;;8.25;4.22;;;31.10;20.80;;;;;;5047180;28;20059;-69
2023/09/09 10:10:36;;;;;;;6.68;4.07;;;31.10;20.50;;;;;;5027727;28;20026;-68
2023/09/09 10:13:19;;;;;;;7.03;4.68;;;31.00;20.00;;;;;;5045960;28;20645;-67
2023/09/09 10:15:46;;;;;;;3.95;3.55;;;30.80;19.40;;;;;;5014456;28;20486;-68
2023/09/09 10:18:13;;;;;;;6.63;4.38;;;30.60;19.80;;;;;;5044905;28;20492;-70
2023/09/09 10:20:39;;;;;;;5.43;4.40;;;30.40;19.90;;;;;;5018930;28;20125;-69
2023/09/09 10:23:05;;;;;;;5.68;3.90;;;30.20;20.40;;;;;;5014789;28;20033;-68
2023/09/09 10:25:32;;;;;;;6.40;4.07;;;30.30;20.50;;;;;;5021584;28;20036;-69
2023/09/09 10:27:58;;;;;;;5.97;4.10;;;30.10;20.60;;;;;;5029517;28;20493;-69
2023/09/09 10:30:24;;;;;;;5.90;4.18;;;30.00;20.80;;;;;;5031879;28;20049;-69
2023/09/09 10:32:50;;;;;;;3.95;3.55;;;29.80;20.50;;;;;;5050572;28;20056;-68
2023/09/09 10:35:17;;;;;;;5.38;4.07;;;29.80;21.00;;;;;;5031804;28;20045;-69
2023/09/09 10:37:43;;;;;;;4.75;4.00;;;29.70;20.80;;;;;;5050580;28;20124;-68
2023/09/09 10:40:10;;;;;;;5.47;3.67;;;29.70;21.10;;;;;;5030425;28;20565;-68
2023/09/09 10:42:41;;;;;;;5.45;3.60;;;29.70;21.00;;;;;;5050698;28;20111;-68
2023/09/09 10:45:25;;;;;;;4.13;3.55;;;29.70;21.00;;;;;;5031111;28;20026;-67
2023/09/09 10:48:00;;;;;;;7.47;3.95;;;29.70;22.00;;;;;;5050795;28;20071;-67
2023/09/09 10:50:46;;;;;;;5.18;3.85;;;29.50;21.40;;;;;;5030093;28;20034;-68
2023/09/09 10:53:30;;;;;;;7.30;5.07;;;29.40;21.70;;;;;;5048409;28;20124;-67
2023/09/09 10:56:20;;;;;;;7.22;4.85;;;29.20;21.80;;;;;;5050722;28;20522;-68
2023/09/09 10:58:46;;;;;;;4.50;3.97;;;29.10;21.90;;;;;;5020777;28;20420;-67
2023/09/09 11:01:25;;;;;;;6.93;4.35;;;29.10;22.30;;;;;;5050863;28;20033;-68
2023/09/09 11:03:52;;;;;;;7.13;4.88;;;28.90;21.70;;;;;;5036298;28;20017;-67
2023/09/09 11:06:36;;;;;;;5.43;4.72;;;28.80;21.90;;;;;;5050753;28;20087;-67
2023/09/09 11:09:02;;;;;;;6.28;4.20;;;28.60;22.30;;;;;;5025085;28;20033;-67
2023/09/09 11:11:37;;;;;;;8.93;4.60;;;28.60;22.50;;;;;;5050834;28;20026;-68
2023/09/09 11:14:07;;;;;;;5.47;4.10;;;28.60;23.10;;;;;;5024929;28;20560;-68
2023/09/09 11:16:40;;;;;;;4.80;3.85;;;28.70;22.50;;;;;;5049887;28;20047;-68
2023/09/09 11:19:07;;;;;;;6.45;4.78;;;28.70;22.40;;;;;;5025966;28;20032;-68
2023/09/09 11:21:35;;;;;;;5.57;4.30;;;28.70;22.30;;;;;;5050482;28;20025;-68
2023/09/09 11:24:02;;;;;;;5.03;4.35;;;28.70;22.50;;;;;;5036143;28;20032;-67
2023/09/09 11:26:28;;;;;;;5.75;3.97;;;28.70;22.40;;;;;;5050624;28;20061;-68
2023/09/09 11:28:54;;;;;;;4.93;4.00;;;28.60;22.20;;;;;;5022842;28;20033;-68
2023/09/09 11:31:20;;;;;;;5.30;3.92;;;28.60;22.30;;;;;;5010250;28;20038;-68
2023/09/09 11:33:45;;;;;;;5.07;4.15;;;28.70;23.20;;;;;;5010536;28;20381;-68
2023/09/09 11:36:16;;;;;;;6.18;4.53;;;28.60;22.40;;;;;;5031879;28;20029;-68
2023/09/09 11:38:42;;;;;;;4.05;3.65;;;28.60;22.70;;;;;;5049884;28;20021;-68
2023/09/09 11:41:07;;;;;;;5.47;4.10;;;28.60;22.60;;;;;;5033702;28;20029;-68
2023/09/09 11:43:33;;;;;;;6.03;4.47;;;28.50;22.50;;;;;;5050021;28;20036;-67
2023/09/09 11:45:59;;;;;;;4.88;4.18;;;28.50;22.10;;;;;;5032386;28;20035;-68
2023/09/09 11:48:25;;;;;;;4.82;3.90;;;28.50;22.40;;;;;;5050062;28;20017;-68
2023/09/09 11:50:51;;;;;;;8.45;4.97;;;28.60;22.50;;;;;;5031153;28;20025;-68
2023/09/09 11:53:20;;;;;;;5.82;4.80;;;28.60;22.10;;;;;;5049870;28;20061;-68
2023/09/09 11:55:50;;;;;;;6.45;4.20;;;28.60;21.90;;;;;;5029801;28;20045;-68
2023/09/09 11:58:16;;;;;;;6.03;4.13;;;28.50;22.10;;;;;;5049776;28;20035;-68
2023/09/09 12:00:41;;;;;;;6.28;4.65;;;28.50;22.10;;;;;;5028849;28;20416;-68
2023/09/09 12:03:07;;;;;;;4.45;4.05;;;28.40;22.00;;;;;;5048365;28;20033;-69
2023/09/09 12:05:33;;;;;;;5.20;4.30;;;28.40;22.30;;;;;;5030260;28;20124;-68
2023/09/09 12:07:59;;;;;;;7.30;4.20;;;28.40;22.60;;;;;;5035742;28;20029;-68
2023/09/09 12:10:33;;;;;;;5.68;4.00;;;28.40;22.60;;;;;;5030264;28;20036;-68
2023/09/09 12:12:59;;;;;;;6.47;4.45;;;28.50;23.20;;;;;;5021409;28;20499;-64
2023/09/09 12:15:26;;;;;;;5.10;4.30;;;28.50;22.70;;;;;;5049805;28;20095;-63
2023/09/09 12:17:52;;;;;;;7.10;4.05;;;28.50;23.10;;;;;;5035785;28;20029;-63
2023/09/09 12:20:17;;;;;;;5.10;3.55;;;28.50;23.30;;;;;;5049480;28;20017;-63
2023/09/09 12:22:50;;;;;;;4.45;3.58;;;28.60;22.60;;;;;;5035213;28;20051;-79
2023/09/09 12:25:35;;;;;;;4.82;3.90;;;28.70;22.70;;;;;;5050566;28;20076;-79
2023/09/09 12:28:01;;;;;;;7.83;4.90;;;28.70;23.30;;;;;;5037044;28;20033;-78
2023/09/09 12:30:35;;;;;;;4.55;3.90;;;28.70;23.30;;;;;;5050723;28;20076;-79
2023/09/09 12:33:12;;;;;;;4.72;4.22;;;28.80;23.10;;;;;;5037883;28;20067;-79
2023/09/09 12:35:43;;;;;;;4.93;3.92;;;28.70;23.00;;;;;;5010697;28;20418;-79
2023/09/09 12:38:08;;;;;;;5.40;4.38;;;28.70;22.70;;;;;;5026735;28;20261;-79
2023/09/09 12:40:50;;;;;;;5.03;3.63;;;28.70;22.70;;;;;;5030608;28;20316;-80
2023/09/09 12:43:19;;;;;;;8.55;5.22;;;28.70;22.50;;;;;;5029128;28;20485;-79